Thalassa — FNFP — position and weather

sailwx.info

Track history (hours):
 
Tides and Currents Weather Stations Pressure Air Temp Water Temp Dewpoint Dewpoint Depression Visibility Wind Speed Wind Dir Waves Ship Positions

Oceanographic research ship Thalassa (France & Spain)

Detailed information on ship capabilities available from University of Delaware's Ocean Information Center.

Last reported at 2014-Oct-21 07:13 UTC. Time now 2014-Oct-22 21:41 UTC.
Position N 46°25' W 004°06'.

Length 74 m; beam 15 m.

Type: . MMSI: 227297000.

Date/timePositionNaut miles runAvg speedWind from/ knotsBaromVisibWave heightAir tempDewpointWater temp
2014-Oct-21 07:13N 46°25' W 004°06'2 2.1
2014-Oct-21 06:24N 46°26' W 004°08'30 1.1
2014-Oct-20 03:20N 46°25' W 003°25'2 2.4
2014-Oct-20 02:31N 46°27' W 003°24'19 5.5
2014-Oct-19 23:09N 46°17' W 003°02'3 5.7
2014-Oct-19 22:33N 46°15' W 002°57'6 5.6
2014-Oct-19 21:33N 46°13' W 002°50'1 0.3
2014-Oct-19 20:04N 46°13' W 002°50'2 3.1
2014-Oct-19 19:16N 46°13' W 002°46'6 6.6
2014-Oct-19 18:25N 46°11' W 002°54'3 1.8
2014-Oct-19 16:33N 46°12' W 002°50'9 4.5
2014-Oct-19 14:33N 46°21' W 002°53'12 5.8
2014-Oct-19 12:24N 46°33' W 002°55'910.4
2014-Oct-19 11:33N 46°36' W 002°43'5 2.6
2014-Oct-19 09:30N 46°38' W 002°35'111 8.6
2014-Oct-18 20:33N 47°54' W 004°35'1010.4
2014-Oct-18 19:33N 48°02' W 004°45'1010.2
2014-Oct-18 18:33N 48°12' W 004°45'10 9.7
2014-Oct-18 17:33N 48°19' W 004°36'3 3.1
2014-Oct-18 16:33N 48°19' W 004°31'0 0.0
2014-Oct-18 15:33N 48°19' W 004°31'0 0.0
2014-Oct-18 14:33N 48°19' W 004°31'0 0.0
2014-Oct-18 13:33N 48°19' W 004°31'0 0.0
2014-Oct-18 12:33N 48°19' W 004°31'0 0.0
2014-Oct-18 11:33N 48°19' W 004°31'0 0.0
2014-Oct-18 10:33N 48°19' W 004°31'0 0.0
2014-Oct-18 09:33N 48°19' W 004°31'0 0.0
2014-Oct-18 08:33N 48°19' W 004°31'0 0.0
2014-Oct-18 07:33N 48°19' W 004°31'2 2.0
2014-Oct-18 06:33N 48°21' W 004°30'2 1.8
2014-Oct-18 05:33N 48°23' W 004°29'0 0.0
2014-Oct-18 04:33N 48°23' W 004°29'0 0.0
2014-Oct-18 03:33N 48°23' W 004°29'0 0.0
2014-Oct-18 02:33N 48°23' W 004°29'0 0.0
2014-Oct-18 01:33N 48°23' W 004°29'0 0.0
2014-Oct-18 00:33N 48°23' W 004°29'0 0.0
2014-Oct-17 23:33N 48°23' W 004°29'0 0.0
2014-Oct-17 22:33N 48°23' W 004°29'0 0.0
2014-Oct-17 21:33N 48°23' W 004°29'0 0.0
2014-Oct-17 20:33N 48°23' W 004°29'0 0.0
2014-Oct-17 19:33N 48°23' W 004°29'0 0.0
2014-Oct-17 18:33N 48°23' W 004°29'0 0.0
2014-Oct-17 17:33N 48°23' W 004°29'0 0.0
2014-Oct-17 16:33N 48°23' W 004°29'0 0.0
2014-Oct-17 15:33N 48°23' W 004°29'0 0.0
2014-Oct-17 14:33N 48°23' W 004°29'0 0.0
2014-Oct-17 13:33N 48°23' W 004°29'0 0.0
2014-Oct-17 12:33N 48°23' W 004°29'0 0.0
2014-Oct-17 11:33N 48°23' W 004°29'0 0.0
2014-Oct-17 10:33N 48°23' W 004°29'0 0.0
2014-Oct-17 09:33N 48°23' W 004°29'0 0.0
2014-Oct-17 08:33N 48°23' W 004°29'0 0.0
2014-Oct-17 07:33N 48°23' W 004°29'0 0.0
2014-Oct-17 06:33N 48°23' W 004°29'0 0.0
2014-Oct-17 05:33N 48°23' W 004°29'0 0.0
2014-Oct-17 04:33N 48°23' W 004°29'0 0.0
2014-Oct-17 03:33N 48°23' W 004°29'0 0.0
2014-Oct-17 02:33N 48°23' W 004°29'0 0.0
2014-Oct-17 01:33N 48°23' W 004°29'0 0.0
2014-Oct-17 00:33N 48°23' W 004°29'0 0.0
2014-Oct-16 23:33N 48°23' W 004°29'0 0.0
2014-Oct-16 22:33N 48°23' W 004°29'0 0.0
2014-Oct-16 21:33N 48°23' W 004°29'0 0.0
2014-Oct-16 20:33N 48°23' W 004°29'0 0.0
2014-Oct-16 19:33N 48°23' W 004°29'0 0.0
2014-Oct-16 18:33N 48°23' W 004°29'0 0.0
2014-Oct-16 17:33N 48°23' W 004°29'0 0.0
2014-Oct-16 16:33N 48°23' W 004°29'0 0.0
2014-Oct-16 15:30N 48°23' W 004°29'0 0.0
2014-Oct-16 14:33N 48°23' W 004°29'0 0.0
2014-Oct-16 13:33N 48°23' W 004°29'0 0.0
2014-Oct-16 12:33N 48°23' W 004°29'0 0.0
2014-Oct-16 11:33N 48°23' W 004°29'0 0.0
2014-Oct-16 10:33N 48°23' W 004°29'0 0.0
2014-Oct-16 09:33N 48°23' W 004°29'0 0.0
2014-Oct-16 08:33N 48°23' W 004°29'0 0.0
2014-Oct-16 07:33N 48°23' W 004°29'0 0.0
2014-Oct-16 06:33N 48°23' W 004°29'0 0.0
2014-Oct-16 05:33N 48°23' W 004°29'0 0.0
2014-Oct-16 04:33N 48°23' W 004°29'0 0.0
2014-Oct-16 03:33N 48°23' W 004°29'0 0.0
2014-Oct-16 02:33N 48°23' W 004°29'0 0.0
2014-Oct-16 01:33N 48°23' W 004°29'0 0.0
2014-Oct-16 00:33N 48°23' W 004°29'0 0.0
2014-Oct-15 23:33N 48°23' W 004°29'0 0.0
2014-Oct-15 22:33N 48°23' W 004°29'0 0.0
2014-Oct-15 21:33N 48°23' W 004°29'0 0.0
2014-Oct-15 20:33N 48°23' W 004°29'0 0.0
2014-Oct-15 19:33N 48°23' W 004°29'0 0.0
2014-Oct-15 18:33N 48°23' W 004°29'0 0.0
2014-Oct-15 17:33N 48°23' W 004°29'0 0.0
2014-Oct-15 16:33N 48°23' W 004°29'0 0.0
2014-Oct-15 15:33N 48°23' W 004°29'0 0.0
2014-Oct-15 14:33N 48°23' W 004°29'0 0.0
2014-Oct-15 13:33N 48°23' W 004°29'0 0.0
2014-Oct-15 12:33N 48°23' W 004°29'0 0.0
2014-Oct-15 11:33N 48°23' W 004°29'0 0.0
2014-Oct-15 10:33N 48°23' W 004°29'0 0.0
2014-Oct-15 09:33N 48°23' W 004°29'0 0.0
2014-Oct-15 08:33N 48°23' W 004°29'0 0.0
2014-Oct-15 07:33N 48°23' W 004°29'0 0.0
2014-Oct-15 06:33N 48°23' W 004°29'0 0.0
2014-Oct-15 05:33N 48°23' W 004°29'0 0.0
2014-Oct-15 04:33N 48°23' W 004°29'0 0.0
2014-Oct-15 03:33N 48°23' W 004°29'0 0.0
2014-Oct-15 02:33N 48°23' W 004°29'0 0.0
2014-Oct-15 01:33N 48°23' W 004°29'0 0.0
2014-Oct-15 00:33N 48°23' W 004°29'0 0.0
2014-Oct-14 23:33N 48°23' W 004°29'0 0.0
2014-Oct-14 22:33N 48°23' W 004°29'0 0.0
2014-Oct-14 21:32N 48°23' W 004°29'0 0.0
2014-Oct-14 20:32N 48°23' W 004°29'0 0.0
2014-Oct-14 19:32N 48°23' W 004°29'0 0.0
2014-Oct-14 18:32N 48°23' W 004°29'0 0.0
2014-Oct-14 17:32N 48°23' W 004°29'0 0.0
2014-Oct-14 16:32N 48°23' W 004°29'0 0.0
2014-Oct-14 15:32N 48°23' W 004°29'0 0.0
2014-Oct-14 14:32N 48°23' W 004°29'0 0.0
2014-Oct-14 13:32N 48°23' W 004°29'0 0.0
2014-Oct-14 12:32N 48°23' W 004°29'1 0.6
2014-Oct-14 11:34N 48°22' W 004°29'5 5.1
2014-Oct-14 10:33N 48°19' W 004°36'6 6.0
2014-Oct-14 09:33N 48°18' W 004°44'7 6.7
2014-Oct-14 08:33N 48°24' W 004°49'8 8.3
2014-Oct-14 07:33N 48°32' W 004°50'17211.4
2014-Oct-13 16:28N 49°39' W 000°47'1313.7
2014-Oct-13 15:33N 49°36' W 000°29'1312.8
2014-Oct-13 14:34N 49°32' W 000°10'1110.7
2014-Oct-13 13:34N 49°29' E 000°06'0 0.4
2014-Oct-13 12:34N 49°29' E 000°06'0 0.0
2014-Oct-13 11:34N 49°29' E 000°06'0 0.0
2014-Oct-13 10:33N 49°29' E 000°06'0 0.0
2014-Oct-13 09:34N 49°29' E 000°06'0 0.0
2014-Oct-13 08:34N 49°29' E 000°06'0 0.0
2014-Oct-13 07:34N 49°29' E 000°06'0 0.0
2014-Oct-13 06:34N 49°29' E 000°06'6 5.7
2014-Oct-13 05:33N 49°30' W 000°02'5 4.8
2014-Oct-13 04:34N 49°34' W 000°07'2 2.1
2014-Oct-13 03:33N 49°36' W 000°07'3 3.0
2014-Oct-13 02:33N 49°39' W 000°08'4 3.5
2014-Oct-13 01:33N 49°43' W 000°09'4 3.5
2014-Oct-13 00:32N 49°46' W 000°08'8 5.3
2014-Oct-12 23:05N 49°51' E 000°02'27 4.7
2014-Oct-12 17:12N 50°17' E 000°14'810.9
2014-Oct-12 16:30N 50°25' E 000°12'1111.2
2014-Oct-12 15:33N 50°35' E 000°09'2 1.8
2014-Oct-12 14:33N 50°37' E 000°09'0 0.2
2014-Oct-12 13:33N 50°37' E 000°09'4 3.6
2014-Oct-12 12:30N 50°39' E 000°04'7 7.0
2014-Oct-12 11:33N 50°36' E 000°13'7 7.0
2014-Oct-12 10:34N 50°32' E 000°22'1 1.2
2014-Oct-12 09:34N 50°32' E 000°21'0 0.5
2014-Oct-12 08:33N 50°32' E 000°20'1010.4
2014-Oct-12 07:34N 50°22' E 000°26'4 4.2
2014-Oct-12 06:33N 50°18' E 000°25'1 1.0
2014-Oct-12 05:33N 50°18' E 000°24'1 1.1
2014-Oct-12 04:33N 50°18' E 000°25'2 2.5
2014-Oct-12 03:33N 50°19' E 000°29'4 4.3
2014-Oct-12 02:32N 50°18' E 000°23'2 2.4
2014-Oct-12 01:33N 50°18' E 000°26'1 0.9
2014-Oct-12 00:34N 50°18' E 000°25'38 3.6
2014-Oct-11 14:09N 50°44' W 000°18'1 1.4
2014-Oct-11 13:28N 50°45' W 000°17'  
Track history (hours):
 
Tides and Currents Weather Stations Pressure Air Temp Water Temp Dewpoint Dewpoint Depression Visibility Wind Speed Wind Dir Waves Ship Positions

Oceanographic research ship Thalassa (France & Spain)

Detailed information on ship capabilities available from University of Delaware's Ocean Information Center.

Last reported at 2014-Oct-21 07:13 UTC. Time now 2014-Oct-22 21:41 UTC.
Position N 46°25' W 004°06'.

Length 74 m; beam 15 m.

Type: . MMSI: 227297000.

Date/timePositionNaut miles runAvg speedWind from/ knotsBaromVisibWave heightAir tempDewpointWater temp
2014-Oct-21 07:13N 46°25' W 004°06'2 2.1
2014-Oct-21 06:24N 46°26' W 004°08'30 1.1
2014-Oct-20 03:20N 46°25' W 003°25'2 2.4
2014-Oct-20 02:31N 46°27' W 003°24'19 5.5
2014-Oct-19 23:09N 46°17' W 003°02'3 5.7
2014-Oct-19 22:33N 46°15' W 002°57'6 5.6
2014-Oct-19 21:33N 46°13' W 002°50'1 0.3
2014-Oct-19 20:04N 46°13' W 002°50'2 3.1
2014-Oct-19 19:16N 46°13' W 002°46'6 6.6
2014-Oct-19 18:25N 46°11' W 002°54'3 1.8
2014-Oct-19 16:33N 46°12' W 002°50'9 4.5
2014-Oct-19 14:33N 46°21' W 002°53'12 5.8
2014-Oct-19 12:24N 46°33' W 002°55'910.4
2014-Oct-19 11:33N 46°36' W 002°43'5 2.6
2014-Oct-19 09:30N 46°38' W 002°35'111 8.6
2014-Oct-18 20:33N 47°54' W 004°35'1010.4
2014-Oct-18 19:33N 48°02' W 004°45'1010.2
2014-Oct-18 18:33N 48°12' W 004°45'10 9.7
2014-Oct-18 17:33N 48°19' W 004°36'3 3.1
2014-Oct-18 16:33N 48°19' W 004°31'0 0.0
2014-Oct-18 15:33N 48°19' W 004°31'0 0.0
2014-Oct-18 14:33N 48°19' W 004°31'0 0.0
2014-Oct-18 13:33N 48°19' W 004°31'0 0.0
2014-Oct-18 12:33N 48°19' W 004°31'0 0.0
2014-Oct-18 11:33N 48°19' W 004°31'0 0.0
2014-Oct-18 10:33N 48°19' W 004°31'0 0.0
2014-Oct-18 09:33N 48°19' W 004°31'0 0.0
2014-Oct-18 08:33N 48°19' W 004°31'0 0.0
2014-Oct-18 07:33N 48°19' W 004°31'2 2.0
2014-Oct-18 06:33N 48°21' W 004°30'2 1.8
2014-Oct-18 05:33N 48°23' W 004°29'0 0.0
2014-Oct-18 04:33N 48°23' W 004°29'0 0.0
2014-Oct-18 03:33N 48°23' W 004°29'0 0.0
2014-Oct-18 02:33N 48°23' W 004°29'0 0.0
2014-Oct-18 01:33N 48°23' W 004°29'0 0.0
2014-Oct-18 00:33N 48°23' W 004°29'0 0.0
2014-Oct-17 23:33N 48°23' W 004°29'0 0.0
2014-Oct-17 22:33N 48°23' W 004°29'0 0.0
2014-Oct-17 21:33N 48°23' W 004°29'0 0.0
2014-Oct-17 20:33N 48°23' W 004°29'0 0.0
2014-Oct-17 19:33N 48°23' W 004°29'0 0.0
2014-Oct-17 18:33N 48°23' W 004°29'0 0.0
2014-Oct-17 17:33N 48°23' W 004°29'0 0.0
2014-Oct-17 16:33N 48°23' W 004°29'0 0.0
2014-Oct-17 15:33N 48°23' W 004°29'0 0.0
2014-Oct-17 14:33N 48°23' W 004°29'0 0.0
2014-Oct-17 13:33N 48°23' W 004°29'0 0.0
2014-Oct-17 12:33N 48°23' W 004°29'0 0.0
2014-Oct-17 11:33N 48°23' W 004°29'0 0.0
2014-Oct-17 10:33N 48°23' W 004°29'0 0.0
2014-Oct-17 09:33N 48°23' W 004°29'0 0.0
2014-Oct-17 08:33N 48°23' W 004°29'0 0.0
2014-Oct-17 07:33N 48°23' W 004°29'0 0.0
2014-Oct-17 06:33N 48°23' W 004°29'0 0.0
2014-Oct-17 05:33N 48°23' W 004°29'0 0.0
2014-Oct-17 04:33N 48°23' W 004°29'0 0.0
2014-Oct-17 03:33N 48°23' W 004°29'0 0.0
2014-Oct-17 02:33N 48°23' W 004°29'0 0.0
2014-Oct-17 01:33N 48°23' W 004°29'0 0.0
2014-Oct-17 00:33N 48°23' W 004°29'0 0.0
2014-Oct-16 23:33N 48°23' W 004°29'0 0.0
2014-Oct-16 22:33N 48°23' W 004°29'0 0.0
2014-Oct-16 21:33N 48°23' W 004°29'0 0.0
2014-Oct-16 20:33N 48°23' W 004°29'0 0.0
2014-Oct-16 19:33N 48°23' W 004°29'0 0.0
2014-Oct-16 18:33N 48°23' W 004°29'0 0.0
2014-Oct-16 17:33N 48°23' W 004°29'0 0.0
2014-Oct-16 16:33N 48°23' W 004°29'0 0.0
2014-Oct-16 15:30N 48°23' W 004°29'0 0.0
2014-Oct-16 14:33N 48°23' W 004°29'0 0.0
2014-Oct-16 13:33N 48°23' W 004°29'0 0.0
2014-Oct-16 12:33N 48°23' W 004°29'0 0.0
2014-Oct-16 11:33N 48°23' W 004°29'0 0.0
2014-Oct-16 10:33N 48°23' W 004°29'0 0.0
2014-Oct-16 09:33N 48°23' W 004°29'0 0.0
2014-Oct-16 08:33N 48°23' W 004°29'0 0.0
2014-Oct-16 07:33N 48°23' W 004°29'0 0.0
2014-Oct-16 06:33N 48°23' W 004°29'0 0.0
2014-Oct-16 05:33N 48°23' W 004°29'0 0.0
2014-Oct-16 04:33N 48°23' W 004°29'0 0.0
2014-Oct-16 03:33N 48°23' W 004°29'0 0.0
2014-Oct-16 02:33N 48°23' W 004°29'0 0.0
2014-Oct-16 01:33N 48°23' W 004°29'0 0.0
2014-Oct-16 00:33N 48°23' W 004°29'0 0.0
2014-Oct-15 23:33N 48°23' W 004°29'0 0.0
2014-Oct-15 22:33N 48°23' W 004°29'0 0.0
2014-Oct-15 21:33N 48°23' W 004°29'0 0.0
2014-Oct-15 20:33N 48°23' W 004°29'0 0.0
2014-Oct-15 19:33N 48°23' W 004°29'0 0.0
2014-Oct-15 18:33N 48°23' W 004°29'0 0.0
2014-Oct-15 17:33N 48°23' W 004°29'0 0.0
2014-Oct-15 16:33N 48°23' W 004°29'0 0.0
2014-Oct-15 15:33N 48°23' W 004°29'0 0.0
2014-Oct-15 14:33N 48°23' W 004°29'0 0.0
2014-Oct-15 13:33N 48°23' W 004°29'0 0.0
2014-Oct-15 12:33N 48°23' W 004°29'0 0.0
2014-Oct-15 11:33N 48°23' W 004°29'0 0.0
2014-Oct-15 10:33N 48°23' W 004°29'0 0.0
2014-Oct-15 09:33N 48°23' W 004°29'0 0.0
2014-Oct-15 08:33N 48°23' W 004°29'0 0.0
2014-Oct-15 07:33N 48°23' W 004°29'0 0.0
2014-Oct-15 06:33N 48°23' W 004°29'0 0.0
2014-Oct-15 05:33N 48°23' W 004°29'0 0.0
2014-Oct-15 04:33N 48°23' W 004°29'0 0.0
2014-Oct-15 03:33N 48°23' W 004°29'0 0.0
2014-Oct-15 02:33N 48°23' W 004°29'0 0.0
2014-Oct-15 01:33N 48°23' W 004°29'0 0.0
2014-Oct-15 00:33N 48°23' W 004°29'0 0.0
2014-Oct-14 23:33N 48°23' W 004°29'0 0.0
2014-Oct-14 22:33N 48°23' W 004°29'0 0.0
2014-Oct-14 21:32N 48°23' W 004°29'0 0.0
2014-Oct-14 20:32N 48°23' W 004°29'0 0.0
2014-Oct-14 19:32N 48°23' W 004°29'0 0.0
2014-Oct-14 18:32N 48°23' W 004°29'0 0.0
2014-Oct-14 17:32N 48°23' W 004°29'0 0.0
2014-Oct-14 16:32N 48°23' W 004°29'0 0.0
2014-Oct-14 15:32N 48°23' W 004°29'0 0.0
2014-Oct-14 14:32N 48°23' W 004°29'0 0.0
2014-Oct-14 13:32N 48°23' W 004°29'0 0.0
2014-Oct-14 12:32N 48°23' W 004°29'1 0.6
2014-Oct-14 11:34N 48°22' W 004°29'5 5.1
2014-Oct-14 10:33N 48°19' W 004°36'6 6.0
2014-Oct-14 09:33N 48°18' W 004°44'7 6.7
2014-Oct-14 08:33N 48°24' W 004°49'8 8.3
2014-Oct-14 07:33N 48°32' W 004°50'17211.4
2014-Oct-13 16:28N 49°39' W 000°47'1313.7
2014-Oct-13 15:33N 49°36' W 000°29'1312.8
2014-Oct-13 14:34N 49°32' W 000°10'1110.7
2014-Oct-13 13:34N 49°29' E 000°06'0 0.4
2014-Oct-13 12:34N 49°29' E 000°06'0 0.0
2014-Oct-13 11:34N 49°29' E 000°06'0 0.0
2014-Oct-13 10:33N 49°29' E 000°06'0 0.0
2014-Oct-13 09:34N 49°29' E 000°06'0 0.0
2014-Oct-13 08:34N 49°29' E 000°06'0 0.0
2014-Oct-13 07:34N 49°29' E 000°06'0 0.0
2014-Oct-13 06:34N 49°29' E 000°06'6 5.7
2014-Oct-13 05:33N 49°30' W 000°02'5 4.8
2014-Oct-13 04:34N 49°34' W 000°07'2 2.1
2014-Oct-13 03:33N 49°36' W 000°07'3 3.0
2014-Oct-13 02:33N 49°39' W 000°08'4 3.5
2014-Oct-13 01:33N 49°43' W 000°09'4 3.5
2014-Oct-13 00:32N 49°46' W 000°08'8 5.3
2014-Oct-12 23:05N 49°51' E 000°02'27 4.7
2014-Oct-12 17:12N 50°17' E 000°14'810.9
2014-Oct-12 16:30N 50°25' E 000°12'1111.2
2014-Oct-12 15:33N 50°35' E 000°09'2 1.8
2014-Oct-12 14:33N 50°37' E 000°09'0 0.2
2014-Oct-12 13:33N 50°37' E 000°09'4 3.6
2014-Oct-12 12:30N 50°39' E 000°04'7 7.0
2014-Oct-12 11:33N 50°36' E 000°13'7 7.0
2014-Oct-12 10:34N 50°32' E 000°22'1 1.2
2014-Oct-12 09:34N 50°32' E 000°21'0 0.5
2014-Oct-12 08:33N 50°32' E 000°20'1010.4
2014-Oct-12 07:34N 50°22' E 000°26'4 4.2
2014-Oct-12 06:33N 50°18' E 000°25'1 1.0
2014-Oct-12 05:33N 50°18' E 000°24'1 1.1
2014-Oct-12 04:33N 50°18' E 000°25'2 2.5
2014-Oct-12 03:33N 50°19' E 000°29'4 4.3
2014-Oct-12 02:32N 50°18' E 000°23'2 2.4
2014-Oct-12 01:33N 50°18' E 000°26'1 0.9
2014-Oct-12 00:34N 50°18' E 000°25'38 3.6
2014-Oct-11 14:09N 50°44' W 000°18'1 1.4
2014-Oct-11 13:28N 50°45' W 000°17'  

Dump ship's entire track history